Time;durP1;ratioP1;P1;durP2;ratioP2;P2;SDS_P1;SDS_P2;PMS_P1;PMS_P2;Temp;Humidity;BMP_temperature;BMP_pressure;BME280_temperature;BME280_humidity;BME280_pressure;Samples;Min_cycle;Max_cycle;Signal;HPM_P1;HPM_P2
2024/03/11 00:01:39;;;;;;;41.03;26.83;;;8.50;99.90;;;;;;5027908;28;20641;-77
2024/03/11 00:04:06;;;;;;;37.60;25.30;;;8.50;99.90;;;;;;5047580;28;20048;-77
2024/03/11 00:06:35;;;;;;;43.83;27.85;;;8.50;99.90;;;;;;5027311;28;20491;-77
2024/03/11 00:09:03;;;;;;;43.38;27.15;;;8.50;99.90;;;;;;5050649;28;20495;-77
2024/03/11 00:11:29;;;;;;;44.85;28.73;;;8.60;99.90;;;;;;5050311;28;20033;-77
2024/03/11 00:13:56;;;;;;;46.95;28.77;;;8.50;99.90;;;;;;5024530;28;20093;-77
2024/03/11 00:16:22;;;;;;;44.80;27.80;;;8.50;99.90;;;;;;5031324;28;20103;-77
2024/03/11 00:18:48;;;;;;;46.83;28.20;;;8.40;99.90;;;;;;5030380;28;20072;-77
2024/03/11 00:21:13;;;;;;;44.03;27.88;;;8.40;99.90;;;;;;5041992;28;20042;-77
2024/03/11 00:23:39;;;;;;;47.85;28.15;;;8.40;99.90;;;;;;5032478;28;20116;-77
2024/03/11 00:26:05;;;;;;;47.25;29.65;;;8.40;99.90;;;;;;5041503;28;20041;-77
2024/03/11 00:28:33;;;;;;;47.53;28.55;;;8.40;99.90;;;;;;5046201;28;20081;-77
2024/03/11 00:31:00;;;;;;;46.15;28.67;;;8.40;99.90;;;;;;5043815;28;20483;-77
2024/03/11 00:33:28;;;;;;;50.42;29.75;;;8.40;99.90;;;;;;5024342;28;20126;-77
2024/03/11 00:35:54;;;;;;;48.38;29.13;;;8.30;99.90;;;;;;5039572;28;20041;-77
2024/03/11 00:38:20;;;;;;;49.30;29.48;;;8.30;99.90;;;;;;5049618;28;20094;-77
2024/03/11 00:40:45;;;;;;;48.65;29.15;;;8.30;99.90;;;;;;5048945;28;20041;-77
2024/03/11 00:43:11;;;;;;;49.65;30.33;;;8.20;99.90;;;;;;5048097;28;20044;-77
2024/03/11 00:45:37;;;;;;;51.40;29.73;;;8.40;99.90;;;;;;5030610;28;20041;-77
2024/03/11 00:48:06;;;;;;;49.17;29.42;;;8.20;99.90;;;;;;5031491;28;20036;-77
2024/03/11 00:50:33;;;;;;;50.25;30.23;;;8.20;99.90;;;;;;5024493;28;20037;-77
2024/03/11 00:53:00;;;;;;;50.22;30.58;;;8.20;99.90;;;;;;5012707;28;20468;-77
2024/03/11 00:55:25;;;;;;;48.50;30.58;;;8.10;99.90;;;;;;5041551;28;20033;-77
2024/03/11 00:57:52;;;;;;;52.80;31.52;;;8.30;99.90;;;;;;5048557;28;20095;-77
2024/03/11 01:00:22;;;;;;;51.30;30.58;;;8.10;99.90;;;;;;5051310;28;20074;-77
2024/03/11 01:02:49;;;;;;;49.97;30.77;;;8.10;99.90;;;;;;5050963;28;20534;-77
2024/03/11 01:05:15;;;;;;;50.17;30.65;;;8.10;99.90;;;;;;5053346;28;20049;-77
2024/03/11 01:07:40;;;;;;;49.83;28.80;;;8.00;99.90;;;;;;5036312;28;20083;-77
2024/03/11 01:10:06;;;;;;;51.70;31.45;;;8.00;99.90;;;;;;5040529;28;20037;-77
2024/03/11 01:12:32;;;;;;;48.42;30.23;;;8.00;99.90;;;;;;5035746;28;20399;-77
2024/03/11 01:14:58;;;;;;;52.92;31.23;;;8.00;99.90;;;;;;5052274;28;20041;-77
2024/03/11 01:17:23;;;;;;;55.13;32.08;;;8.00;99.90;;;;;;5046681;28;20422;-77
2024/03/11 01:19:49;;;;;;;52.72;31.98;;;8.00;99.90;;;;;;5044050;28;20116;-76
2024/03/11 01:22:18;;;;;;;51.40;30.48;;;7.90;99.90;;;;;;5031875;28;20120;-77
2024/03/11 01:24:43;;;;;;;52.45;31.48;;;8.00;99.90;;;;;;5046402;28;20040;-76
2024/03/11 01:27:14;;;;;;;53.35;31.52;;;7.90;99.90;;;;;;5032255;28;20040;-77
2024/03/11 01:29:42;;;;;;;49.95;31.05;;;8.00;99.90;;;;;;5043056;28;20037;-77
2024/03/11 01:32:11;;;;;;;52.20;32.60;;;7.90;99.90;;;;;;5046113;28;20547;-77
2024/03/11 01:34:39;;;;;;;53.40;32.15;;;7.90;99.90;;;;;;5019144;28;20037;-77
2024/03/11 01:37:06;;;;;;;56.03;31.67;;;7.90;99.90;;;;;;5031293;28;20045;-77
2024/03/11 01:39:44;;;;;;;49.25;30.75;;;7.90;99.90;;;;;;5025802;28;20506;-77
2024/03/11 01:42:15;;;;;;;52.75;31.65;;;8.00;99.90;;;;;;5029501;28;20495;-77
2024/03/11 01:44:45;;;;;;;46.97;29.77;;;7.90;99.90;;;;;;5047674;28;20128;-77
2024/03/11 01:47:15;;;;;;;54.25;30.88;;;7.90;99.90;;;;;;5042668;28;20042;-77
2024/03/11 01:49:45;;;;;;;53.25;31.45;;;7.90;99.90;;;;;;5026725;28;20044;-77
2024/03/11 01:52:16;;;;;;;56.22;31.67;;;7.90;99.90;;;;;;5024903;28;20543;-76
2024/03/11 01:54:43;;;;;;;56.65;31.95;;;7.90;99.90;;;;;;5045607;28;20119;-76
2024/03/11 01:57:12;;;;;;;53.95;32.05;;;7.90;99.90;;;;;;5050859;28;20103;-77
2024/03/11 01:59:39;;;;;;;54.92;32.78;;;7.90;99.90;;;;;;5046205;28;20094;-77
2024/03/11 02:02:08;;;;;;;52.30;31.38;;;7.80;99.90;;;;;;5045941;28;20037;-77
2024/03/11 02:04:35;;;;;;;52.90;31.92;;;7.80;99.90;;;;;;5045865;28;20092;-77
2024/03/11 02:07:01;;;;;;;52.13;30.65;;;7.80;99.90;;;;;;5029022;28;20091;-76
2024/03/11 02:09:28;;;;;;;54.83;31.92;;;7.80;99.90;;;;;;5027733;28;20128;-77
2024/03/11 02:11:53;;;;;;;55.25;31.23;;;7.90;99.90;;;;;;5028450;28;20499;-77
2024/03/11 02:14:19;;;;;;;50.58;31.70;;;7.90;99.90;;;;;;5048265;28;20044;-76
2024/03/11 02:16:45;;;;;;;53.00;30.23;;;7.90;99.90;;;;;;5052560;28;20119;-77
2024/03/11 02:19:12;;;;;;;55.88;32.15;;;7.90;99.90;;;;;;5035238;28;20119;-77
2024/03/11 02:21:47;;;;;;;49.60;29.73;;;7.80;99.90;;;;;;5045012;28;20403;-77
2024/03/11 02:24:16;;;;;;;52.38;31.02;;;7.80;99.90;;;;;;5050015;28;20063;-77
2024/03/11 02:26:48;;;;;;;56.03;31.42;;;7.80;99.90;;;;;;5051587;28;20483;-77
2024/03/11 02:29:16;;;;;;;52.55;31.13;;;7.70;99.90;;;;;;5049894;28;20049;-77
2024/03/11 02:31:52;;;;;;;55.58;31.08;;;7.70;99.90;;;;;;5028439;28;20051;-77
2024/03/11 02:34:18;;;;;;;54.13;29.63;;;7.80;99.90;;;;;;5047191;28;20033;-77
2024/03/11 02:36:46;;;;;;;51.10;31.00;;;7.70;99.90;;;;;;5041773;28;20041;-77
2024/03/11 02:39:14;;;;;;;55.58;30.73;;;7.80;99.90;;;;;;5045956;28;20033;-77
2024/03/11 02:41:41;;;;;;;52.38;30.50;;;7.80;99.90;;;;;;5045684;28;20037;-77
2024/03/11 02:44:08;;;;;;;51.60;31.30;;;7.70;99.90;;;;;;5051520;28;20029;-77
2024/03/11 02:46:34;;;;;;;52.35;30.52;;;7.70;99.90;;;;;;5046509;28;20061;-77
2024/03/11 02:49:00;;;;;;;57.15;32.10;;;7.70;99.90;;;;;;5044249;28;20041;-77
2024/03/11 02:51:26;;;;;;;49.95;29.52;;;7.70;99.90;;;;;;5049904;28;20036;-77
2024/03/11 02:53:52;;;;;;;49.70;29.80;;;7.90;99.90;;;;;;5033984;28;20103;-77
2024/03/11 02:56:18;;;;;;;47.58;29.25;;;7.70;99.90;;;;;;5050995;28;20091;-77
2024/03/11 02:58:44;;;;;;;52.03;29.20;;;7.70;99.90;;;;;;5044617;28;20491;-77
2024/03/11 03:01:12;;;;;;;49.83;29.55;;;7.80;99.90;;;;;;5051393;28;20048;-77
2024/03/11 03:03:38;;;;;;;49.58;28.67;;;7.70;99.90;;;;;;5046142;28;20514;-77
2024/03/11 03:06:04;;;;;;;53.13;29.98;;;7.60;99.90;;;;;;5051445;28;20045;-77
2024/03/11 03:08:29;;;;;;;50.33;30.38;;;7.70;99.90;;;;;;5026008;28;20044;-77
2024/03/11 03:11:01;;;;;;;50.00;29.55;;;7.60;99.90;;;;;;5045204;28;20091;-77
2024/03/11 03:13:27;;;;;;;48.60;27.98;;;7.60;99.90;;;;;;5038385;28;20111;-77
2024/03/11 03:15:52;;;;;;;47.55;28.83;;;7.60;99.90;;;;;;5025473;28;20118;-77
2024/03/11 03:18:19;;;;;;;48.83;28.15;;;7.60;99.90;;;;;;5042828;28;20025;-77
2024/03/11 03:20:46;;;;;;;47.30;27.98;;;7.70;99.90;;;;;;5042960;28;20064;-77
2024/03/11 03:23:12;;;;;;;47.33;28.40;;;7.60;99.90;;;;;;5045830;28;20071;-77
2024/03/11 03:25:38;;;;;;;47.63;28.77;;;7.70;99.90;;;;;;5026202;28;20044;-77
2024/03/11 03:28:05;;;;;;;48.15;27.83;;;7.70;99.90;;;;;;5030523;28;20495;-77
2024/03/11 03:30:32;;;;;;;48.97;28.13;;;7.60;99.90;;;;;;5039319;28;20094;-77
2024/03/11 03:32:59;;;;;;;49.05;27.15;;;7.80;99.90;;;;;;5051367;28;20119;-77
2024/03/11 03:35:25;;;;;;;48.65;28.40;;;7.70;99.90;;;;;;5043117;28;20390;-77
2024/03/11 03:37:54;;;;;;;50.03;29.42;;;7.70;99.90;;;;;;5043867;28;20056;-77
2024/03/11 03:40:22;;;;;;;50.92;28.30;;;7.70;99.90;;;;;;5047991;28;20064;-77
2024/03/11 03:42:49;;;;;;;48.05;29.05;;;7.80;99.90;;;;;;5043309;28;20053;-77
2024/03/11 03:45:17;;;;;;;50.00;28.10;;;7.70;99.90;;;;;;5045671;28;20116;-77
2024/03/11 03:47:43;;;;;;;48.47;28.65;;;7.70;99.90;;;;;;5021957;28;20064;-77
2024/03/11 03:50:10;;;;;;;46.80;27.67;;;7.70;99.90;;;;;;5038730;28;20072;-77
2024/03/11 03:52:38;;;;;;;45.00;26.45;;;7.70;99.90;;;;;;5042315;28;20033;-77
2024/03/11 03:55:05;;;;;;;45.42;26.38;;;7.70;99.90;;;;;;5047403;28;20107;-77
2024/03/11 03:57:31;;;;;;;50.75;27.02;;;7.70;99.90;;;;;;5027693;28;20043;-77
2024/03/11 03:59:57;;;;;;;48.58;28.27;;;7.70;99.90;;;;;;5027068;28;20041;-77
2024/03/11 04:02:23;;;;;;;44.88;26.58;;;8.00;99.90;;;;;;5030562;28;20045;-77
2024/03/11 04:04:49;;;;;;;48.80;27.35;;;7.70;99.90;;;;;;5045910;28;20041;-77
2024/03/11 04:07:15;;;;;;;44.92;25.60;;;7.70;99.90;;;;;;5042884;28;20048;-77
2024/03/11 04:09:40;;;;;;;48.13;28.13;;;7.70;99.90;;;;;;5049869;28;20418;-77
2024/03/11 04:12:06;;;;;;;43.42;25.73;;;7.70;99.90;;;;;;5038874;28;20042;-76
2024/03/11 04:14:32;;;;;;;48.17;27.35;;;7.80;99.90;;;;;;5050587;28;20043;-77
2024/03/11 04:16:58;;;;;;;44.72;27.65;;;7.80;99.90;;;;;;5047588;28;20112;-77
2024/03/11 04:19:27;;;;;;;47.55;27.15;;;7.70;99.90;;;;;;5047570;28;20582;-77
2024/03/11 04:21:56;;;;;;;47.65;26.52;;;7.90;99.90;;;;;;5049382;28;20037;-77
2024/03/11 04:24:22;;;;;;;43.60;26.23;;;7.80;99.90;;;;;;5049837;28;20459;-76
2024/03/11 04:26:48;;;;;;;45.63;26.67;;;7.80;99.90;;;;;;5031340;28;20068;-77
2024/03/11 04:29:15;;;;;;;44.88;26.48;;;7.80;99.90;;;;;;5032140;28;20487;-77
2024/03/11 04:31:41;;;;;;;42.83;25.35;;;7.90;99.90;;;;;;5045661;28;20048;-77
2024/03/11 04:34:10;;;;;;;42.20;26.23;;;7.80;99.90;;;;;;5031184;28;20041;-77
2024/03/11 04:36:36;;;;;;;47.00;27.45;;;7.80;99.90;;;;;;5052448;28;20037;-77
2024/03/11 04:39:04;;;;;;;42.97;26.05;;;7.80;99.90;;;;;;5041299;28;20037;-77
2024/03/11 04:41:31;;;;;;;45.80;26.63;;;7.90;99.90;;;;;;5031584;28;20041;-77
2024/03/11 04:43:58;;;;;;;45.92;26.20;;;7.80;99.90;;;;;;5050541;28;20041;-77
2024/03/11 04:46:23;;;;;;;45.38;25.50;;;7.80;99.90;;;;;;5036489;28;20051;-77
2024/03/11 04:48:49;;;;;;;47.28;26.67;;;7.90;99.90;;;;;;5053317;28;20379;-77
2024/03/11 04:51:15;;;;;;;42.38;25.83;;;7.80;99.90;;;;;;5045936;28;20038;-79
2024/03/11 04:53:41;;;;;;;43.45;25.95;;;7.80;99.90;;;;;;5043077;28;20058;-77
2024/03/11 04:56:07;;;;;;;42.50;25.40;;;8.00;99.90;;;;;;5047108;28;20041;-77
2024/03/11 04:58:32;;;;;;;44.95;25.65;;;7.80;99.90;;;;;;5027968;28;20510;-77
2024/03/11 05:00:58;;;;;;;46.13;26.08;;;7.80;99.90;;;;;;5050858;28;20119;-78
2024/03/11 05:03:24;;;;;;;44.03;25.88;;;7.80;99.90;;;;;;5028006;28;20474;-77
2024/03/11 05:05:50;;;;;;;46.08;26.10;;;7.80;99.90;;;;;;5047539;28;20041;-77
2024/03/11 05:08:15;;;;;;;45.65;26.27;;;7.70;99.90;;;;;;5044908;28;20111;-77
2024/03/11 05:10:41;;;;;;;43.78;25.55;;;7.70;99.90;;;;;;5025161;28;20042;-77
2024/03/11 05:13:08;;;;;;;41.67;25.23;;;7.80;99.90;;;;;;5027326;28;20128;-77
2024/03/11 05:15:33;;;;;;;41.38;25.48;;;7.90;99.90;;;;;;5035706;28;20418;-77
2024/03/11 05:18:00;;;;;;;44.63;26.23;;;7.80;99.90;;;;;;5051966;28;20041;-77
2024/03/11 05:20:26;;;;;;;44.33;26.75;;;7.80;99.90;;;;;;5049335;28;20041;-77
2024/03/11 05:22:52;;;;;;;43.88;26.40;;;7.70;99.90;;;;;;5051529;28;20041;-77
2024/03/11 05:25:17;;;;;;;45.65;24.60;;;7.70;99.90;;;;;;5049109;28;20484;-77
2024/03/11 05:27:46;;;;;;;43.53;26.40;;;7.70;99.90;;;;;;5052824;28;20388;-78
2024/03/11 05:30:13;;;;;;;47.97;26.75;;;7.70;99.90;;;;;;5034709;28;20037;-77
2024/03/11 05:32:39;;;;;;;47.25;26.40;;;7.70;99.90;;;;;;5048071;28;20033;-77
2024/03/11 05:35:05;;;;;;;43.42;25.42;;;7.70;99.90;;;;;;5052418;28;20036;-77
2024/03/11 05:37:33;;;;;;;44.63;25.17;;;7.70;99.90;;;;;;5086332;23;20147;-75
2024/03/11 05:40:05;;;;;;;42.10;24.40;;;7.90;99.90;;;;;;5050324;28;20075;-75
2024/03/11 05:42:33;;;;;;;46.08;25.15;;;7.60;99.90;;;;;;5049590;28;20041;-75
2024/03/11 05:44:59;;;;;;;42.67;25.15;;;7.70;99.90;;;;;;5018872;28;20029;-75
2024/03/11 05:47:25;;;;;;;43.83;25.40;;;7.80;99.90;;;;;;5023468;28;20606;-75
2024/03/11 05:49:54;;;;;;;44.20;25.23;;;7.60;99.90;;;;;;5033146;28;20411;-75
2024/03/11 05:52:24;;;;;;;41.60;25.25;;;7.80;99.90;;;;;;5030147;28;20034;-75
2024/03/11 05:54:57;;;;;;;40.65;23.90;;;8.00;99.90;;;;;;4999257;28;20048;-75
2024/03/11 05:57:33;;;;;;;44.33;25.20;;;7.60;99.90;;;;;;5032658;28;20064;-75
2024/03/11 06:00:04;;;;;;;46.65;25.33;;;7.60;99.90;;;;;;5033452;28;20041;-75
2024/03/11 06:02:29;;;;;;;48.10;25.25;;;7.60;99.90;;;;;;5013756;28;20046;-75
2024/03/11 06:04:55;;;;;;;41.60;25.40;;;7.60;99.90;;;;;;5032086;28;20029;-75
2024/03/11 06:07:23;;;;;;;44.00;24.95;;;7.50;99.90;;;;;;5013332;28;20049;-75
2024/03/11 06:09:53;;;;;;;44.47;24.42;;;7.60;99.90;;;;;;5010165;28;20037;-74
2024/03/11 06:12:20;;;;;;;41.33;24.50;;;7.50;99.90;;;;;;5017687;28;20084;-75
2024/03/11 06:14:46;;;;;;;42.70;24.50;;;7.50;99.90;;;;;;4993545;28;20029;-75
2024/03/11 06:17:12;;;;;;;43.20;24.58;;;8.20;99.90;;;;;;5032715;28;20492;-75
2024/03/11 06:19:38;;;;;;;46.05;25.25;;;7.50;99.90;;;;;;5014939;28;20075;-75
2024/03/11 06:22:04;;;;;;;39.63;23.70;;;8.20;99.90;;;;;;5031928;28;20052;-75
2024/03/11 06:24:33;;;;;;;44.08;25.85;;;7.80;99.90;;;;;;5014910;28;20108;-75
2024/03/11 06:27:04;;;;;;;44.15;25.48;;;8.00;99.90;;;;;;5011061;28;20041;-75
2024/03/11 06:29:30;;;;;;;40.65;23.67;;;7.50;99.90;;;;;;5007155;28;20095;-75
2024/03/11 06:31:58;;;;;;;46.63;25.92;;;7.50;99.90;;;;;;5032881;28;20029;-76
2024/03/11 06:34:24;;;;;;;42.22;24.38;;;7.90;99.90;;;;;;5014967;28;20578;-76
2024/03/11 06:36:50;;;;;;;40.88;24.00;;;7.50;99.90;;;;;;5029531;28;20045;-75
2024/03/11 06:39:18;;;;;;;41.42;24.85;;;7.80;99.90;;;;;;5011336;28;20063;-74
2024/03/11 06:41:45;;;;;;;39.90;23.38;;;7.50;99.90;;;;;;5006957;28;20048;-74
2024/03/11 06:44:11;;;;;;;42.55;24.20;;;7.50;99.90;;;;;;5031646;28;20095;-74
2024/03/11 06:46:37;;;;;;;39.72;23.38;;;7.90;99.90;;;;;;5030653;28;20502;-74
2024/03/11 06:49:05;;;;;;;41.65;24.58;;;7.50;99.90;;;;;;5013448;28;20083;-74
2024/03/11 06:51:30;;;;;;;43.78;23.58;;;7.50;99.90;;;;;;4982140;28;20037;-74
2024/03/11 06:53:59;;;;;;;46.30;24.25;;;8.10;99.90;;;;;;5026249;28;20530;-74
2024/03/11 06:56:26;;;;;;;39.83;23.15;;;7.60;99.90;;;;;;5017187;28;20389;-75
2024/03/11 06:58:51;;;;;;;43.80;24.63;;;7.80;99.90;;;;;;5007060;28;20089;-74
2024/03/11 07:01:17;;;;;;;39.22;23.80;;;7.60;99.90;;;;;;5025436;28;20474;-74
2024/03/11 07:03:43;;;;;;;40.65;23.20;;;7.60;99.90;;;;;;5030421;28;20155;-74
2024/03/11 07:06:09;;;;;;;44.20;24.05;;;7.60;99.90;;;;;;5014357;28;20112;-74
2024/03/11 07:08:36;;;;;;;40.78;24.92;;;7.70;99.90;;;;;;5011924;28;20045;-74
2024/03/11 07:11:03;;;;;;;39.92;23.33;;;7.60;99.90;;;;;;4993429;28;20515;-74
2024/03/11 07:13:31;;;;;;;37.20;21.83;;;7.60;99.90;;;;;;5007471;28;20048;-74
2024/03/11 07:15:58;;;;;;;38.33;22.63;;;7.80;99.90;;;;;;5023370;28;20041;-74
2024/03/11 07:18:23;;;;;;;40.33;24.08;;;7.60;99.90;;;;;;5027142;28;20045;-74
2024/03/11 07:20:52;;;;;;;41.38;22.52;;;7.60;99.90;;;;;;4996157;28;20052;-75
2024/03/11 07:23:21;;;;;;;43.65;23.83;;;8.10;99.90;;;;;;5014931;28;20029;-75
2024/03/11 07:25:47;;;;;;;39.67;23.63;;;8.00;99.90;;;;;;5031041;28;20041;-75
2024/03/11 07:28:13;;;;;;;40.00;23.20;;;7.70;99.90;;;;;;5013239;28;20056;-75
2024/03/11 07:30:39;;;;;;;40.90;22.60;;;8.10;99.90;;;;;;5027141;28;20029;-74
2024/03/11 07:33:09;;;;;;;38.63;22.63;;;7.70;99.90;;;;;;5013903;28;20496;-74
2024/03/11 07:35:37;;;;;;;36.58;22.52;;;8.00;99.90;;;;;;5032083;28;20034;-74
2024/03/11 07:38:05;;;;;;;37.42;21.77;;;7.80;99.90;;;;;;5028346;28;20037;-74
2024/03/11 07:40:37;;;;;;;41.40;22.90;;;7.70;99.90;;;;;;5012054;28;20256;-74
2024/03/11 07:43:03;;;;;;;;;;;7.70;99.90;;;;;;5030985;28;20037;-73
2024/03/11 07:45:33;;;;;;;37.88;23.33;;;7.70;99.90;;;;;;5012998;28;20329;-73
2024/03/11 07:48:01;;;;;;;42.13;23.73;;;7.70;99.90;;;;;;5006082;28;20053;-74
2024/03/11 07:50:27;;;;;;;40.90;23.30;;;7.70;99.90;;;;;;4992145;28;20116;-73
2024/03/11 07:52:56;;;;;;;41.00;22.67;;;7.70;99.90;;;;;;5027749;28;20041;-73
2024/03/11 07:55:23;;;;;;;37.03;22.20;;;7.80;99.90;;;;;;5030502;28;20025;-73
2024/03/11 07:57:53;;;;;;;42.15;22.88;;;7.80;99.90;;;;;;4991437;28;20038;-74
2024/03/11 08:00:20;;;;;;;39.35;22.58;;;7.90;99.90;;;;;;5010521;28;20076;-74
2024/03/11 08:02:48;;;;;;;39.25;22.23;;;7.80;99.90;;;;;;5009619;28;20041;-74
2024/03/11 08:05:14;;;;;;;37.85;22.73;;;7.80;99.90;;;;;;5030168;28;20037;-74
2024/03/11 08:07:42;;;;;;;38.38;22.55;;;7.80;99.90;;;;;;5006280;28;20087;-73
2024/03/11 08:10:09;;;;;;;38.15;22.35;;;7.80;99.90;;;;;;5013276;28;20030;-74
2024/03/11 08:12:36;;;;;;;39.33;23.58;;;7.80;99.90;;;;;;5010479;28;20034;-75
2024/03/11 08:15:06;;;;;;;38.03;21.83;;;8.00;99.90;;;;;;5029734;28;20120;-72
2024/03/11 08:17:32;;;;;;;40.42;23.00;;;7.90;99.90;;;;;;5000394;28;20037;-74
2024/03/11 08:19:57;;;;;;;38.20;22.38;;;7.90;99.90;;;;;;5034455;28;20095;-74
2024/03/11 08:22:23;;;;;;;39.95;22.05;;;7.90;99.90;;;;;;5010787;28;20049;-74
2024/03/11 08:24:49;;;;;;;39.88;23.05;;;7.90;99.90;;;;;;5000078;28;20562;-74
2024/03/11 08:27:15;;;;;;;35.88;22.67;;;7.90;99.90;;;;;;5012646;28;20463;-74
2024/03/11 08:29:43;;;;;;;39.30;22.67;;;7.90;99.90;;;;;;5032763;28;20121;-74
2024/03/11 08:32:12;;;;;;;38.97;22.17;;;7.90;99.90;;;;;;5032891;28;20104;-74
2024/03/11 08:34:38;;;;;;;40.72;21.98;;;8.00;99.90;;;;;;5031648;28;20120;-73
2024/03/11 08:37:04;;;;;;;45.25;23.27;;;8.00;99.90;;;;;;5032515;28;20041;-73
2024/03/11 08:39:30;;;;;;;40.83;22.30;;;8.00;99.90;;;;;;5013034;28;20407;-73
2024/03/11 08:41:57;;;;;;;39.67;21.85;;;8.20;99.90;;;;;;5026514;28;20053;-73
2024/03/11 08:44:23;;;;;;;38.80;22.92;;;8.00;99.90;;;;;;5015808;28;21850;-73
2024/03/11 08:46:51;;;;;;;38.55;23.40;;;8.10;99.90;;;;;;5032923;28;20076;-73
2024/03/11 08:49:16;;;;;;;34.95;21.55;;;8.10;99.90;;;;;;5027340;28;20045;-73
2024/03/11 08:51:42;;;;;;;36.30;22.13;;;8.00;99.90;;;;;;5033509;28;20026;-73
2024/03/11 08:54:09;;;;;;;38.03;22.48;;;8.10;99.90;;;;;;5033093;28;20136;-74
2024/03/11 08:56:36;;;;;;;37.00;21.60;;;8.00;99.90;;;;;;5032474;28;20083;-74
2024/03/11 08:59:10;;;;;;;40.30;22.35;;;8.10;99.90;;;;;;5032354;28;20416;-74
2024/03/11 09:01:40;;;;;;;37.03;22.30;;;8.10;99.90;;;;;;5013887;28;20376;-73
2024/03/11 09:04:10;;;;;;;39.35;21.92;;;8.10;99.90;;;;;;5029911;28;20116;-73
2024/03/11 09:06:38;;;;;;;38.13;22.55;;;8.00;99.90;;;;;;5032670;28;20041;-73
2024/03/11 09:09:04;;;;;;;38.75;23.38;;;8.10;99.90;;;;;;5015726;28;20049;-74
2024/03/11 09:11:31;;;;;;;36.53;22.20;;;8.10;99.90;;;;;;5033340;28;20033;-74
2024/03/11 09:13:57;;;;;;;35.72;22.25;;;8.10;99.90;;;;;;5015174;28;20033;-74
2024/03/11 09:16:24;;;;;;;40.30;22.85;;;8.10;99.90;;;;;;5013251;28;20045;-74
2024/03/11 09:18:50;;;;;;;39.35;23.20;;;8.10;99.90;;;;;;5010109;28;20045;-73
2024/03/11 09:21:17;;;;;;;40.85;23.73;;;8.40;99.90;;;;;;5033217;28;20098;-74
2024/03/11 09:23:43;;;;;;;35.72;21.80;;;8.20;99.90;;;;;;5031713;28;20034;-74
2024/03/11 09:26:10;;;;;;;37.50;22.55;;;8.50;99.90;;;;;;5033056;28;20045;-74
2024/03/11 09:28:36;;;;;;;39.00;23.45;;;8.50;99.90;;;;;;5014987;28;20045;-74
2024/03/11 09:31:01;;;;;;;39.75;23.33;;;8.40;99.90;;;;;;5032454;28;20034;-74
2024/03/11 09:33:27;;;;;;;39.70;22.67;;;8.40;99.90;;;;;;5032947;28;20446;-74
2024/03/11 09:35:54;;;;;;;43.15;24.67;;;8.40;99.90;;;;;;5014120;28;20419;-74
2024/03/11 09:38:19;;;;;;;38.17;22.27;;;8.40;99.90;;;;;;5014757;28;20045;-74
2024/03/11 09:40:48;;;;;;;37.67;22.70;;;8.40;99.90;;;;;;5005635;28;20458;-74
2024/03/11 09:43:15;;;;;;;38.17;22.95;;;8.60;99.90;;;;;;5027865;28;20037;-74
2024/03/11 09:45:43;;;;;;;41.75;23.10;;;8.20;99.90;;;;;;5014060;28;20057;-74
2024/03/11 09:48:09;;;;;;;39.58;23.00;;;8.40;99.90;;;;;;5014725;28;20056;-74
2024/03/11 09:50:37;;;;;;;39.75;23.55;;;8.70;99.90;;;;;;5032440;28;20029;-74
2024/03/11 09:53:06;;;;;;;40.08;23.65;;;8.30;99.90;;;;;;5032377;28;20045;-74
2024/03/11 09:55:36;;;;;;;38.05;23.00;;;8.30;99.90;;;;;;5028331;28;20086;-74
2024/03/11 09:58:02;;;;;;;35.78;22.63;;;8.30;99.90;;;;;;5014463;28;20049;-74
2024/03/11 10:00:29;;;;;;;37.63;22.75;;;8.20;99.90;;;;;;5014985;28;20152;-74
2024/03/11 10:03:05;;;;;;;37.15;21.70;;;8.70;99.90;;;;;;5014046;28;20175;-73
2024/03/11 10:05:32;;;;;;;36.50;22.65;;;8.30;99.90;;;;;;5028442;28;20038;-74
2024/03/11 10:08:01;;;;;;;40.33;22.52;;;8.30;99.90;;;;;;5014738;28;20048;-73
2024/03/11 10:10:32;;;;;;;38.15;22.02;;;8.30;99.90;;;;;;5013415;28;20088;-73
2024/03/11 10:13:04;;;;;;;38.42;23.35;;;8.40;99.90;;;;;;5028020;28;20096;-74
2024/03/11 10:15:32;;;;;;;;;;;8.60;99.90;;;;;;5019368;28;20629;-74
2024/03/11 10:18:14;;;;;;;39.58;22.45;;;8.40;99.90;;;;;;5030356;28;19971;-74
2024/03/11 10:20:43;;;;;;;39.13;22.77;;;8.40;99.90;;;;;;5012898;28;20508;-74
2024/03/11 10:23:09;;;;;;;32.83;21.00;;;8.60;99.90;;;;;;5013919;28;20511;-74
2024/03/11 10:25:35;;;;;;;39.30;23.02;;;8.30;99.90;;;;;;4996352;28;20042;-73
2024/03/11 10:28:04;;;;;;;41.60;22.70;;;8.60;99.90;;;;;;5030854;28;20222;-73
2024/03/11 10:30:31;;;;;;;38.83;21.90;;;8.40;99.90;;;;;;5025446;28;20037;-72
2024/03/11 10:33:01;;;;;;;38.15;22.45;;;8.40;99.90;;;;;;5019319;28;20072;-73
2024/03/11 10:35:33;;;;;;;38.00;22.40;;;8.40;99.90;;;;;;5013223;28;20111;-73
2024/03/11 10:38:12;;;;;;;36.78;22.42;;;8.50;99.90;;;;;;5031971;28;20048;-73
2024/03/11 10:40:38;;;;;;;39.70;22.83;;;8.50;99.90;;;;;;4996944;28;20112;-73
2024/03/11 10:43:25;;;;;;;37.03;22.55;;;8.80;99.90;;;;;;5014963;28;20041;-73
2024/03/11 10:45:51;;;;;;;39.58;22.33;;;8.50;99.90;;;;;;5031235;28;20041;-73
2024/03/11 10:48:17;;;;;;;40.53;22.05;;;8.50;99.90;;;;;;5007856;28;20179;-72
2024/03/11 10:50:43;;;;;;;36.10;22.45;;;8.50;99.90;;;;;;5029779;28;20040;-73
2024/03/11 10:53:21;;;;;;;38.83;24.13;;;8.50;99.90;;;;;;5030736;28;20041;-73
2024/03/11 10:55:58;;;;;;;40.15;23.05;;;8.60;99.90;;;;;;5030823;28;20048;-73
2024/03/11 10:58:31;;;;;;;34.97;22.00;;;8.70;99.90;;;;;;5006228;28;20117;-73
2024/03/11 11:01:03;;;;;;;39.97;23.27;;;8.80;99.90;;;;;;5028944;28;20040;-73
2024/03/11 11:03:31;;;;;;;36.57;22.23;;;8.70;99.90;;;;;;5026368;28;20102;-73
2024/03/11 11:06:01;;;;;;;37.90;21.88;;;8.70;99.90;;;;;;5030111;28;20037;-74
2024/03/11 11:08:30;;;;;;;39.67;22.88;;;8.70;99.90;;;;;;5013587;28;20029;-73
2024/03/11 11:10:58;;;;;;;36.05;21.58;;;8.70;99.90;;;;;;5011229;28;20526;-73
2024/03/11 11:13:29;;;;;;;35.85;22.10;;;8.80;99.90;;;;;;5013741;28;20619;-73
2024/03/11 11:15:57;;;;;;;37.28;22.13;;;8.80;99.90;;;;;;5030552;28;20045;-73
2024/03/11 11:18:26;;;;;;;41.85;21.80;;;8.70;99.90;;;;;;5013641;28;20053;-73
2024/03/11 11:20:52;;;;;;;40.95;22.77;;;8.70;99.90;;;;;;5012588;28;20130;-73
2024/03/11 11:23:27;;;;;;;37.47;22.58;;;8.80;99.90;;;;;;5012177;28;20048;-73
2024/03/11 11:25:56;;;;;;;38.28;23.10;;;8.60;99.90;;;;;;5013147;28;20146;-73
2024/03/11 11:28:37;;;;;;;36.55;22.10;;;8.60;99.90;;;;;;5028988;28;20500;-73
2024/03/11 11:31:14;;;;;;;37.20;21.48;;;8.60;99.90;;;;;;5031049;28;20041;-73
2024/03/11 11:33:56;;;;;;;37.22;22.50;;;8.80;99.90;;;;;;5025917;28;20120;-74
2024/03/11 11:36:37;;;;;;;38.20;22.38;;;8.60;99.90;;;;;;5026486;28;20045;-73
2024/03/11 11:39:17;;;;;;;37.55;22.15;;;8.60;99.90;;;;;;5047300;23;20060;-77
2024/03/11 11:41:45;;;;;;;40.05;23.77;;;8.60;99.90;;;;;;5031479;28;20037;-76
2024/03/11 11:44:24;;;;;;;39.53;21.95;;;8.60;99.90;;;;;;5048415;28;20560;-76
2024/03/11 11:46:51;;;;;;;38.65;23.05;;;8.60;99.90;;;;;;5029118;28;20557;-75
2024/03/11 11:49:23;;;;;;;39.83;23.42;;;8.60;99.90;;;;;;5008110;28;20121;-76
2024/03/11 11:51:54;;;;;;;40.67;23.20;;;8.60;99.90;;;;;;5013654;28;20124;-76
2024/03/11 11:54:26;;;;;;;37.15;23.20;;;8.80;99.90;;;;;;5031031;28;20052;-76
2024/03/11 11:57:06;;;;;;;38.08;22.88;;;8.60;99.90;;;;;;5007526;28;20045;-77
2024/03/11 11:59:40;;;;;;;39.42;23.45;;;8.70;99.90;;;;;;5008018;28;20107;-76
2024/03/11 12:02:19;;;;;;;38.13;24.15;;;8.70;99.90;;;;;;5028585;28;20056;-75
2024/03/11 12:04:48;;;;;;;39.63;22.90;;;8.60;99.90;;;;;;5010785;28;20049;-77
2024/03/11 12:07:22;;;;;;;35.88;22.27;;;8.70;99.90;;;;;;5031081;28;20042;-76
2024/03/11 12:09:59;;;;;;;40.95;23.20;;;8.70;99.90;;;;;;5009503;28;20037;-76
2024/03/11 12:12:28;;;;;;;38.17;23.40;;;8.70;99.90;;;;;;5008465;28;20120;-76
2024/03/11 12:14:54;;;;;;;36.40;23.55;;;8.70;99.90;;;;;;5009082;28;20045;-75
2024/03/11 12:17:19;;;;;;;40.50;23.55;;;8.60;99.90;;;;;;5006335;28;20041;-76
2024/03/11 12:19:45;;;;;;;37.15;23.67;;;8.70;99.90;;;;;;5029828;28;20076;-77
2024/03/11 12:22:14;;;;;;;40.88;23.30;;;8.80;99.90;;;;;;5028948;28;20033;-78
2024/03/11 12:24:43;;;;;;;41.10;23.50;;;8.70;99.90;;;;;;5029209;28;20044;-76
2024/03/11 12:27:12;;;;;;;39.33;23.17;;;8.60;99.90;;;;;;5030213;28;20037;-76
2024/03/11 12:29:39;;;;;;;38.00;23.95;;;8.60;99.90;;;;;;5007388;28;20112;-76
2024/03/11 12:32:11;;;;;;;38.53;22.92;;;8.60;99.90;;;;;;5025182;28;20068;-76
2024/03/11 12:34:38;;;;;;;35.60;22.98;;;8.60;99.90;;;;;;5008132;28;20049;-77
2024/03/11 12:37:06;;;;;;;35.63;22.85;;;8.60;99.90;;;;;;4987163;28;20046;-76
2024/03/11 12:39:42;;;;;;;40.13;23.77;;;8.50;99.90;;;;;;5010824;28;20045;-77
2024/03/11 12:42:09;;;;;;;36.60;23.40;;;8.60;99.90;;;;;;5029372;28;20152;-77